sensor_id;sensor_type;location;lat;lon;timestamp;P1;durP1;ratioP1;P2;durP2;ratioP2
4634;SDS011;2330;48.158;11.816;2022-08-23T00:01:31;2.73;;;2.50;;
4634;SDS011;2330;48.158;11.816;2022-08-23T00:04:04;3.00;;;2.70;;
4634;SDS011;2330;48.158;11.816;2022-08-23T00:06:36;3.20;;;2.50;;
4634;SDS011;2330;48.158;11.816;2022-08-23T00:09:04;2.07;;;1.90;;
4634;SDS011;2330;48.158;11.816;2022-08-23T00:11:33;4.70;;;2.70;;
4634;SDS011;2330;48.158;11.816;2022-08-23T00:14:07;3.27;;;2.30;;
4634;SDS011;2330;48.158;11.816;2022-08-23T00:16:48;3.00;;;2.70;;
4634;SDS011;2330;48.158;11.816;2022-08-23T00:19:18;2.70;;;2.50;;
4634;SDS011;2330;48.158;11.816;2022-08-23T00:21:46;3.23;;;3.00;;
4634;SDS011;2330;48.158;11.816;2022-08-23T00:24:15;3.20;;;3.00;;
4634;SDS011;2330;48.158;11.816;2022-08-23T00:29:18;5.43;;;2.47;;
4634;SDS011;2330;48.158;11.816;2022-08-23T00:31:49;2.60;;;2.10;;
4634;SDS011;2330;48.158;11.816;2022-08-23T00:34:16;4.70;;;2.83;;
4634;SDS011;2330;48.158;11.816;2022-08-23T00:36:43;4.57;;;2.70;;
4634;SDS011;2330;48.158;11.816;2022-08-23T00:39:10;3.20;;;2.70;;
4634;SDS011;2330;48.158;11.816;2022-08-23T00:41:37;3.17;;;2.23;;
4634;SDS011;2330;48.158;11.816;2022-08-23T00:44:05;3.70;;;2.60;;
4634;SDS011;2330;48.158;11.816;2022-08-23T00:46:57;2.47;;;2.00;;
4634;SDS011;2330;48.158;11.816;2022-08-23T00:49:52;2.97;;;2.67;;
4634;SDS011;2330;48.158;11.816;2022-08-23T00:52:46;3.37;;;3.07;;
4634;SDS011;2330;48.158;11.816;2022-08-23T00:55:17;3.23;;;2.93;;
4634;SDS011;2330;48.158;11.816;2022-08-23T00:57:46;10.70;;;2.93;;
4634;SDS011;2330;48.158;11.816;2022-08-23T01:00:13;3.57;;;3.27;;
4634;SDS011;2330;48.158;11.816;2022-08-23T01:02:40;5.77;;;2.80;;
4634;SDS011;2330;48.158;11.816;2022-08-23T01:05:08;2.80;;;2.60;;
4634;SDS011;2330;48.158;11.816;2022-08-23T01:10:06;3.70;;;3.20;;
4634;SDS011;2330;48.158;11.816;2022-08-23T01:12:49;5.97;;;3.37;;
4634;SDS011;2330;48.158;11.816;2022-08-23T01:15:25;3.27;;;2.97;;
4634;SDS011;2330;48.158;11.816;2022-08-23T01:18:01;3.63;;;3.33;;
4634;SDS011;2330;48.158;11.816;2022-08-23T01:20:38;5.30;;;3.10;;
4634;SDS011;2330;48.158;11.816;2022-08-23T01:23:28;4.80;;;3.67;;
4634;SDS011;2330;48.158;11.816;2022-08-23T01:25:58;3.10;;;2.80;;
4634;SDS011;2330;48.158;11.816;2022-08-23T01:28:26;3.70;;;3.40;;
4634;SDS011;2330;48.158;11.816;2022-08-23T01:30:53;3.27;;;2.97;;
4634;SDS011;2330;48.158;11.816;2022-08-23T01:33:20;4.83;;;3.23;;
4634;SDS011;2330;48.158;11.816;2022-08-23T01:35:48;6.37;;;3.47;;
4634;SDS011;2330;48.158;11.816;2022-08-23T01:38:19;3.17;;;2.97;;
4634;SDS011;2330;48.158;11.816;2022-08-23T01:40:47;4.43;;;3.20;;
4634;SDS011;2330;48.158;11.816;2022-08-23T01:43:16;3.93;;;3.30;;
4634;SDS011;2330;48.158;11.816;2022-08-23T01:45:47;8.60;;;3.27;;
4634;SDS011;2330;48.158;11.816;2022-08-23T01:48:15;4.87;;;3.60;;
4634;SDS011;2330;48.158;11.816;2022-08-23T01:50:43;3.70;;;2.90;;
4634;SDS011;2330;48.158;11.816;2022-08-23T01:53:10;3.07;;;2.83;;
4634;SDS011;2330;48.158;11.816;2022-08-23T01:55:37;3.53;;;3.23;;
4634;SDS011;2330;48.158;11.816;2022-08-23T01:58:06;4.17;;;3.53;;
4634;SDS011;2330;48.158;11.816;2022-08-23T02:00:35;3.80;;;3.50;;
4634;SDS011;2330;48.158;11.816;2022-08-23T02:03:04;4.63;;;3.57;;
4634;SDS011;2330;48.158;11.816;2022-08-23T02:05:33;5.90;;;3.77;;
4634;SDS011;2330;48.158;11.816;2022-08-23T02:08:03;3.40;;;3.10;;
4634;SDS011;2330;48.158;11.816;2022-08-23T02:10:49;4.17;;;3.77;;
4634;SDS011;2330;48.158;11.816;2022-08-23T02:13:16;4.60;;;3.73;;
4634;SDS011;2330;48.158;11.816;2022-08-23T02:15:44;3.80;;;3.50;;
4634;SDS011;2330;48.158;11.816;2022-08-23T02:18:12;6.30;;;3.13;;
4634;SDS011;2330;48.158;11.816;2022-08-23T02:20:44;3.70;;;3.40;;
4634;SDS011;2330;48.158;11.816;2022-08-23T02:23:16;3.87;;;3.57;;
4634;SDS011;2330;48.158;11.816;2022-08-23T02:25:43;5.07;;;4.57;;
4634;SDS011;2330;48.158;11.816;2022-08-23T02:28:10;3.33;;;3.13;;
4634;SDS011;2330;48.158;11.816;2022-08-23T02:30:37;4.73;;;4.30;;
4634;SDS011;2330;48.158;11.816;2022-08-23T02:33:05;4.07;;;3.80;;
4634;SDS011;2330;48.158;11.816;2022-08-23T02:35:32;4.20;;;3.80;;
4634;SDS011;2330;48.158;11.816;2022-08-23T02:38:03;3.50;;;3.30;;
4634;SDS011;2330;48.158;11.816;2022-08-23T02:40:31;4.00;;;3.60;;
4634;SDS011;2330;48.158;11.816;2022-08-23T02:42:58;3.83;;;3.30;;
4634;SDS011;2330;48.158;11.816;2022-08-23T02:45:26;5.70;;;3.30;;
4634;SDS011;2330;48.158;11.816;2022-08-23T02:47:54;3.53;;;3.23;;
4634;SDS011;2330;48.158;11.816;2022-08-23T02:50:22;3.77;;;3.47;;
4634;SDS011;2330;48.158;11.816;2022-08-23T02:52:49;3.53;;;3.23;;
4634;SDS011;2330;48.158;11.816;2022-08-23T02:55:16;5.60;;;3.20;;
4634;SDS011;2330;48.158;11.816;2022-08-23T02:57:43;5.90;;;3.63;;
4634;SDS011;2330;48.158;11.816;2022-08-23T03:00:11;4.70;;;2.63;;
4634;SDS011;2330;48.158;11.816;2022-08-23T03:02:39;3.10;;;2.80;;
4634;SDS011;2330;48.158;11.816;2022-08-23T03:05:07;3.80;;;3.50;;
4634;SDS011;2330;48.158;11.816;2022-08-23T03:07:34;10.97;;;3.50;;
4634;SDS011;2330;48.158;11.816;2022-08-23T03:10:02;3.67;;;3.20;;
4634;SDS011;2330;48.158;11.816;2022-08-23T03:12:30;4.80;;;4.03;;
4634;SDS011;2330;48.158;11.816;2022-08-23T03:14:57;2.93;;;2.73;;
4634;SDS011;2330;48.158;11.816;2022-08-23T03:17:24;3.10;;;2.80;;
4634;SDS011;2330;48.158;11.816;2022-08-23T03:19:51;3.40;;;3.10;;
4634;SDS011;2330;48.158;11.816;2022-08-23T03:22:18;3.43;;;2.73;;
4634;SDS011;2330;48.158;11.816;2022-08-23T03:24:46;3.20;;;2.83;;
4634;SDS011;2330;48.158;11.816;2022-08-23T03:27:12;3.60;;;3.30;;
4634;SDS011;2330;48.158;11.816;2022-08-23T03:29:39;3.27;;;2.97;;
4634;SDS011;2330;48.158;11.816;2022-08-23T03:32:06;6.70;;;3.77;;
4634;SDS011;2330;48.158;11.816;2022-08-23T03:34:35;3.00;;;2.70;;
4634;SDS011;2330;48.158;11.816;2022-08-23T03:37:02;3.20;;;2.70;;
4634;SDS011;2330;48.158;11.816;2022-08-23T03:39:29;2.80;;;2.60;;
4634;SDS011;2330;48.158;11.816;2022-08-23T03:41:56;3.27;;;2.93;;
4634;SDS011;2330;48.158;11.816;2022-08-23T03:44:23;4.57;;;3.07;;
4634;SDS011;2330;48.158;11.816;2022-08-23T03:46:49;3.50;;;3.10;;
4634;SDS011;2330;48.158;11.816;2022-08-23T03:49:16;7.00;;;2.80;;
4634;SDS011;2330;48.158;11.816;2022-08-23T03:51:43;3.00;;;2.70;;
4634;SDS011;2330;48.158;11.816;2022-08-23T03:54:09;5.47;;;3.07;;
4634;SDS011;2330;48.158;11.816;2022-08-23T03:56:37;4.50;;;3.70;;
4634;SDS011;2330;48.158;11.816;2022-08-23T03:59:14;7.03;;;3.47;;
4634;SDS011;2330;48.158;11.816;2022-08-23T04:01:41;3.70;;;3.40;;
4634;SDS011;2330;48.158;11.816;2022-08-23T04:04:09;4.50;;;2.73;;
4634;SDS011;2330;48.158;11.816;2022-08-23T04:06:36;4.87;;;2.90;;
4634;SDS011;2330;48.158;11.816;2022-08-23T04:09:03;3.90;;;3.20;;
4634;SDS011;2330;48.158;11.816;2022-08-23T04:11:30;4.37;;;3.40;;
4634;SDS011;2330;48.158;11.816;2022-08-23T04:13:57;6.03;;;3.70;;
4634;SDS011;2330;48.158;11.816;2022-08-23T04:16:24;6.53;;;3.30;;
4634;SDS011;2330;48.158;11.816;2022-08-23T04:18:51;4.20;;;3.80;;
4634;SDS011;2330;48.158;11.816;2022-08-23T04:21:18;4.77;;;3.57;;
4634;SDS011;2330;48.158;11.816;2022-08-23T04:23:48;3.00;;;2.80;;
4634;SDS011;2330;48.158;11.816;2022-08-23T04:26:15;3.53;;;2.87;;
4634;SDS011;2330;48.158;11.816;2022-08-23T04:28:41;3.53;;;2.90;;
4634;SDS011;2330;48.158;11.816;2022-08-23T04:31:08;3.60;;;3.30;;
4634;SDS011;2330;48.158;11.816;2022-08-23T04:33:35;6.77;;;3.90;;
4634;SDS011;2330;48.158;11.816;2022-08-23T04:36:05;3.47;;;3.17;;
4634;SDS011;2330;48.158;11.816;2022-08-23T04:38:32;6.20;;;3.23;;
4634;SDS011;2330;48.158;11.816;2022-08-23T04:40:59;4.73;;;3.40;;
4634;SDS011;2330;48.158;11.816;2022-08-23T04:43:45;4.23;;;3.80;;
4634;SDS011;2330;48.158;11.816;2022-08-23T04:46:12;5.90;;;4.93;;
4634;SDS011;2330;48.158;11.816;2022-08-23T04:48:41;5.80;;;5.00;;
4634;SDS011;2330;48.158;11.816;2022-08-23T04:51:08;6.50;;;4.70;;
4634;SDS011;2330;48.158;11.816;2022-08-23T04:53:35;4.63;;;4.03;;
4634;SDS011;2330;48.158;11.816;2022-08-23T04:56:03;5.73;;;4.17;;
4634;SDS011;2330;48.158;11.816;2022-08-23T04:58:31;5.27;;;4.10;;
4634;SDS011;2330;48.158;11.816;2022-08-23T05:00:59;8.33;;;4.30;;
4634;SDS011;2330;48.158;11.816;2022-08-23T05:03:27;5.03;;;4.20;;
4634;SDS011;2330;48.158;11.816;2022-08-23T05:05:55;10.33;;;3.67;;
4634;SDS011;2330;48.158;11.816;2022-08-23T05:08:23;3.60;;;3.30;;
4634;SDS011;2330;48.158;11.816;2022-08-23T05:10:50;6.43;;;3.83;;
4634;SDS011;2330;48.158;11.816;2022-08-23T05:13:17;6.00;;;3.80;;
4634;SDS011;2330;48.158;11.816;2022-08-23T05:15:44;4.10;;;3.80;;
4634;SDS011;2330;48.158;11.816;2022-08-23T05:18:11;3.90;;;3.50;;
4634;SDS011;2330;48.158;11.816;2022-08-23T05:20:38;3.57;;;3.37;;
4634;SDS011;2330;48.158;11.816;2022-08-23T05:23:04;3.87;;;3.47;;
4634;SDS011;2330;48.158;11.816;2022-08-23T05:25:31;7.77;;;3.57;;
4634;SDS011;2330;48.158;11.816;2022-08-23T05:28:22;4.43;;;4.03;;
4634;SDS011;2330;48.158;11.816;2022-08-23T05:30:56;3.97;;;3.67;;
4634;SDS011;2330;48.158;11.816;2022-08-23T05:33:27;4.40;;;3.77;;
4634;SDS011;2330;48.158;11.816;2022-08-23T05:35:55;4.57;;;3.13;;
4634;SDS011;2330;48.158;11.816;2022-08-23T05:38:22;4.70;;;3.73;;
4634;SDS011;2330;48.158;11.816;2022-08-23T05:40:53;3.80;;;3.50;;
4634;SDS011;2330;48.158;11.816;2022-08-23T05:43:25;4.33;;;3.63;;
4634;SDS011;2330;48.158;11.816;2022-08-23T05:45:58;4.07;;;3.77;;
4634;SDS011;2330;48.158;11.816;2022-08-23T05:48:38;7.83;;;3.20;;
4634;SDS011;2330;48.158;11.816;2022-08-23T05:51:23;3.90;;;3.60;;
4634;SDS011;2330;48.158;11.816;2022-08-23T05:53:54;4.60;;;3.80;;
4634;SDS011;2330;48.158;11.816;2022-08-23T05:56:29;3.70;;;3.40;;
4634;SDS011;2330;48.158;11.816;2022-08-23T05:58:58;3.57;;;3.27;;
4634;SDS011;2330;48.158;11.816;2022-08-23T06:01:29;4.13;;;3.47;;
4634;SDS011;2330;48.158;11.816;2022-08-23T06:04:00;5.70;;;3.50;;
4634;SDS011;2330;48.158;11.816;2022-08-23T06:06:29;3.37;;;3.10;;
4634;SDS011;2330;48.158;11.816;2022-08-23T06:09:03;3.83;;;3.53;;
4634;SDS011;2330;48.158;11.816;2022-08-23T06:11:31;5.70;;;4.07;;
4634;SDS011;2330;48.158;11.816;2022-08-23T06:13:59;4.03;;;3.63;;
4634;SDS011;2330;48.158;11.816;2022-08-23T06:16:29;5.90;;;3.13;;
4634;SDS011;2330;48.158;11.816;2022-08-23T06:19:01;5.17;;;3.60;;
4634;SDS011;2330;48.158;11.816;2022-08-23T06:21:28;4.70;;;3.27;;
4634;SDS011;2330;48.158;11.816;2022-08-23T06:23:56;5.93;;;3.40;;
4634;SDS011;2330;48.158;11.816;2022-08-23T06:26:27;3.20;;;2.83;;
4634;SDS011;2330;48.158;11.816;2022-08-23T06:29:02;3.00;;;2.80;;
4634;SDS011;2330;48.158;11.816;2022-08-23T06:31:31;3.33;;;2.50;;
4634;SDS011;2330;48.158;11.816;2022-08-23T06:34:15;7.60;;;3.47;;
4634;SDS011;2330;48.158;11.816;2022-08-23T06:36:48;3.70;;;2.90;;
4634;SDS011;2330;48.158;11.816;2022-08-23T06:39:21;3.30;;;3.00;;
4634;SDS011;2330;48.158;11.816;2022-08-23T06:41:49;2.97;;;2.77;;
4634;SDS011;2330;48.158;11.816;2022-08-23T06:44:17;2.83;;;2.63;;
4634;SDS011;2330;48.158;11.816;2022-08-23T06:46:45;5.40;;;2.90;;
4634;SDS011;2330;48.158;11.816;2022-08-23T06:49:14;4.20;;;2.77;;
4634;SDS011;2330;48.158;11.816;2022-08-23T06:51:42;3.53;;;2.73;;
4634;SDS011;2330;48.158;11.816;2022-08-23T06:54:12;3.50;;;2.80;;
4634;SDS011;2330;48.158;11.816;2022-08-23T06:56:40;4.00;;;2.53;;
4634;SDS011;2330;48.158;11.816;2022-08-23T06:59:10;8.10;;;3.47;;
4634;SDS011;2330;48.158;11.816;2022-08-23T07:01:53;3.73;;;3.40;;
4634;SDS011;2330;48.158;11.816;2022-08-23T07:04:24;5.37;;;3.17;;
4634;SDS011;2330;48.158;11.816;2022-08-23T07:06:56;5.20;;;3.43;;
4634;SDS011;2330;48.158;11.816;2022-08-23T07:09:24;3.63;;;3.07;;
4634;SDS011;2330;48.158;11.816;2022-08-23T07:11:52;4.40;;;3.00;;
4634;SDS011;2330;48.158;11.816;2022-08-23T07:14:19;2.60;;;2.40;;
4634;SDS011;2330;48.158;11.816;2022-08-23T07:16:49;2.50;;;2.30;;
4634;SDS011;2330;48.158;11.816;2022-08-23T07:19:18;3.40;;;2.93;;
4634;SDS011;2330;48.158;11.816;2022-08-23T07:21:46;4.47;;;2.57;;
4634;SDS011;2330;48.158;11.816;2022-08-23T07:24:15;3.10;;;2.17;;
4634;SDS011;2330;48.158;11.816;2022-08-23T07:26:43;3.10;;;2.27;;
4634;SDS011;2330;48.158;11.816;2022-08-23T07:29:11;4.57;;;2.70;;
4634;SDS011;2330;48.158;11.816;2022-08-23T07:31:40;9.40;;;3.23;;
4634;SDS011;2330;48.158;11.816;2022-08-23T07:34:09;5.60;;;3.07;;
4634;SDS011;2330;48.158;11.816;2022-08-23T07:36:36;5.00;;;2.60;;
4634;SDS011;2330;48.158;11.816;2022-08-23T07:39:05;2.80;;;2.27;;
4634;SDS011;2330;48.158;11.816;2022-08-23T07:41:32;5.07;;;2.73;;
4634;SDS011;2330;48.158;11.816;2022-08-23T07:44:01;4.30;;;2.73;;
4634;SDS011;2330;48.158;11.816;2022-08-23T07:46:29;4.67;;;2.70;;
4634;SDS011;2330;48.158;11.816;2022-08-23T07:48:57;4.50;;;2.53;;
4634;SDS011;2330;48.158;11.816;2022-08-23T07:51:25;4.77;;;2.33;;
4634;SDS011;2330;48.158;11.816;2022-08-23T07:53:54;5.13;;;3.17;;
4634;SDS011;2330;48.158;11.816;2022-08-23T07:56:20;7.80;;;3.47;;
4634;SDS011;2330;48.158;11.816;2022-08-23T07:58:47;5.13;;;2.83;;
4634;SDS011;2330;48.158;11.816;2022-08-23T08:01:16;3.80;;;2.57;;
4634;SDS011;2330;48.158;11.816;2022-08-23T08:03:45;4.40;;;3.03;;
4634;SDS011;2330;48.158;11.816;2022-08-23T08:06:18;2.70;;;2.50;;
4634;SDS011;2330;48.158;11.816;2022-08-23T08:08:47;5.00;;;2.57;;
4634;SDS011;2330;48.158;11.816;2022-08-23T08:11:15;3.83;;;2.77;;
4634;SDS011;2330;48.158;11.816;2022-08-23T08:13:44;3.70;;;2.70;;
4634;SDS011;2330;48.158;11.816;2022-08-23T08:16:28;3.33;;;2.50;;
4634;SDS011;2330;48.158;11.816;2022-08-23T08:19:00;7.30;;;3.07;;
4634;SDS011;2330;48.158;11.816;2022-08-23T08:21:29;2.63;;;2.40;;
4634;SDS011;2330;48.158;11.816;2022-08-23T08:23:55;7.33;;;2.70;;
4634;SDS011;2330;48.158;11.816;2022-08-23T08:26:24;4.73;;;3.13;;
4634;SDS011;2330;48.158;11.816;2022-08-23T08:28:52;4.20;;;2.33;;
4634;SDS011;2330;48.158;11.816;2022-08-23T08:31:22;3.23;;;2.17;;
4634;SDS011;2330;48.158;11.816;2022-08-23T08:33:50;4.90;;;2.30;;
4634;SDS011;2330;48.158;11.816;2022-08-23T08:36:31;3.63;;;1.97;;
4634;SDS011;2330;48.158;11.816;2022-08-23T08:39:03;7.70;;;2.07;;
4634;SDS011;2330;48.158;11.816;2022-08-23T08:44:41;4.07;;;2.53;;
4634;SDS011;2330;48.158;11.816;2022-08-23T08:50:07;4.27;;;2.70;;
4634;SDS011;2330;48.158;11.816;2022-08-23T08:52:55;2.60;;;2.00;;
4634;SDS011;2330;48.158;11.816;2022-08-23T08:55:35;3.43;;;2.23;;
4634;SDS011;2330;48.158;11.816;2022-08-23T08:58:13;2.93;;;2.50;;
4634;SDS011;2330;48.158;11.816;2022-08-23T09:00:46;3.17;;;2.50;;
4634;SDS011;2330;48.158;11.816;2022-08-23T09:03:18;2.57;;;2.00;;
4634;SDS011;2330;48.158;11.816;2022-08-23T09:06:00;4.53;;;2.23;;
4634;SDS011;2330;48.158;11.816;2022-08-23T09:11:50;5.00;;;2.10;;
4634;SDS011;2330;48.158;11.816;2022-08-23T09:17:30;4.00;;;2.37;;
4634;SDS011;2330;48.158;11.816;2022-08-23T09:20:22;2.50;;;1.93;;
4634;SDS011;2330;48.158;11.816;2022-08-23T09:23:15;3.03;;;2.03;;
4634;SDS011;2330;48.158;11.816;2022-08-23T09:25:52;3.47;;;2.03;;
4634;SDS011;2330;48.158;11.816;2022-08-23T09:28:19;7.20;;;2.00;;
4634;SDS011;2330;48.158;11.816;2022-08-23T09:30:56;7.60;;;1.97;;
4634;SDS011;2330;48.158;11.816;2022-08-23T09:33:25;2.70;;;1.63;;
4634;SDS011;2330;48.158;11.816;2022-08-23T09:36:04;2.63;;;1.60;;
4634;SDS011;2330;48.158;11.816;2022-08-23T09:38:31;1.93;;;1.73;;
4634;SDS011;2330;48.158;11.816;2022-08-23T09:40:58;2.53;;;2.20;;
4634;SDS011;2330;48.158;11.816;2022-08-23T09:43:26;2.33;;;2.00;;
4634;SDS011;2330;48.158;11.816;2022-08-23T09:45:57;2.33;;;1.70;;
4634;SDS011;2330;48.158;11.816;2022-08-23T09:51:04;4.73;;;2.07;;
4634;SDS011;2330;48.158;11.816;2022-08-23T09:53:40;1.70;;;1.60;;
4634;SDS011;2330;48.158;11.816;2022-08-23T09:56:16;3.97;;;1.60;;
4634;SDS011;2330;48.158;11.816;2022-08-23T09:58:51;5.70;;;2.23;;
4634;SDS011;2330;48.158;11.816;2022-08-23T10:01:21;5.63;;;1.90;;
4634;SDS011;2330;48.158;11.816;2022-08-23T10:06:42;4.13;;;1.60;;
4634;SDS011;2330;48.158;11.816;2022-08-23T10:09:21;2.63;;;1.90;;
4634;SDS011;2330;48.158;11.816;2022-08-23T10:11:51;4.00;;;2.30;;
4634;SDS011;2330;48.158;11.816;2022-08-23T10:14:19;3.10;;;1.43;;
4634;SDS011;2330;48.158;11.816;2022-08-23T10:22:26;3.43;;;1.87;;
4634;SDS011;2330;48.158;11.816;2022-08-23T10:25:08;5.47;;;1.67;;
4634;SDS011;2330;48.158;11.816;2022-08-23T10:41:46;7.23;;;1.80;;
4634;SDS011;2330;48.158;11.816;2022-08-23T10:47:56;4.27;;;2.00;;
4634;SDS011;2330;48.158;11.816;2022-08-23T10:50:40;4.13;;;2.60;;
4634;SDS011;2330;48.158;11.816;2022-08-23T10:53:20;5.23;;;2.30;;
4634;SDS011;2330;48.158;11.816;2022-08-23T10:55:56;2.43;;;2.20;;
4634;SDS011;2330;48.158;11.816;2022-08-23T10:58:33;2.27;;;2.03;;
4634;SDS011;2330;48.158;11.816;2022-08-23T11:01:30;1.90;;;1.70;;
4634;SDS011;2330;48.158;11.816;2022-08-23T11:06:41;2.20;;;1.83;;
4634;SDS011;2330;48.158;11.816;2022-08-23T11:14:40;4.10;;;1.63;;
4634;SDS011;2330;48.158;11.816;2022-08-23T11:20:07;2.47;;;2.10;;
4634;SDS011;2330;48.158;11.816;2022-08-23T11:27:48;4.23;;;2.10;;
4634;SDS011;2330;48.158;11.816;2022-08-23T11:33:13;3.67;;;2.40;;
4634;SDS011;2330;48.158;11.816;2022-08-23T11:35:43;5.60;;;1.90;;
4634;SDS011;2330;48.158;11.816;2022-08-23T11:38:14;3.97;;;2.23;;
4634;SDS011;2330;48.158;11.816;2022-08-23T11:45:53;2.90;;;1.53;;
4634;SDS011;2330;48.158;11.816;2022-08-23T12:08:32;3.83;;;1.80;;
4634;SDS011;2330;48.158;11.816;2022-08-23T12:11:13;2.70;;;1.30;;
4634;SDS011;2330;48.158;11.816;2022-08-23T12:13:48;7.63;;;1.60;;
4634;SDS011;2330;48.158;11.816;2022-08-23T12:16:28;1.87;;;1.60;;
4634;SDS011;2330;48.158;11.816;2022-08-23T12:19:04;3.27;;;1.40;;
4634;SDS011;2330;48.158;11.816;2022-08-23T12:24:39;1.20;;;1.10;;
4634;SDS011;2330;48.158;11.816;2022-08-23T12:29:58;1.83;;;1.27;;
4634;SDS011;2330;48.158;11.816;2022-08-23T12:32:29;3.90;;;1.50;;
4634;SDS011;2330;48.158;11.816;2022-08-23T12:35:37;1.50;;;1.40;;
4634;SDS011;2330;48.158;11.816;2022-08-23T12:43:55;1.33;;;1.13;;
4634;SDS011;2330;48.158;11.816;2022-08-23T12:46:28;1.63;;;1.30;;
4634;SDS011;2330;48.158;11.816;2022-08-23T12:49:00;3.27;;;1.40;;
4634;SDS011;2330;48.158;11.816;2022-08-23T12:51:28;1.50;;;1.40;;
4634;SDS011;2330;48.158;11.816;2022-08-23T12:53:55;1.57;;;1.47;;
4634;SDS011;2330;48.158;11.816;2022-08-23T12:56:28;2.70;;;1.33;;
4634;SDS011;2330;48.158;11.816;2022-08-23T12:58:59;1.60;;;1.40;;
4634;SDS011;2330;48.158;11.816;2022-08-23T13:01:32;4.43;;;1.50;;
4634;SDS011;2330;48.158;11.816;2022-08-23T13:04:06;2.07;;;1.40;;
4634;SDS011;2330;48.158;11.816;2022-08-23T13:06:45;1.07;;;0.97;;
4634;SDS011;2330;48.158;11.816;2022-08-23T13:09:23;3.90;;;1.30;;
4634;SDS011;2330;48.158;11.816;2022-08-23T13:11:55;1.43;;;1.30;;
4634;SDS011;2330;48.158;11.816;2022-08-23T13:19:51;1.80;;;1.30;;
4634;SDS011;2330;48.158;11.816;2022-08-23T13:22:29;3.90;;;1.30;;
4634;SDS011;2330;48.158;11.816;2022-08-23T13:27:54;1.73;;;1.17;;
4634;SDS011;2330;48.158;11.816;2022-08-23T13:30:44;2.03;;;1.20;;
4634;SDS011;2330;48.158;11.816;2022-08-23T13:33:22;2.70;;;1.40;;
4634;SDS011;2330;48.158;11.816;2022-08-23T13:35:49;1.43;;;1.33;;
4634;SDS011;2330;48.158;11.816;2022-08-23T13:38:21;1.40;;;1.30;;
4634;SDS011;2330;48.158;11.816;2022-08-23T13:41:09;2.17;;;1.30;;
4634;SDS011;2330;48.158;11.816;2022-08-23T13:43:51;2.53;;;1.20;;
4634;SDS011;2330;48.158;11.816;2022-08-23T13:46:22;2.53;;;1.73;;
4634;SDS011;2330;48.158;11.816;2022-08-23T13:49:03;2.60;;;1.20;;
4634;SDS011;2330;48.158;11.816;2022-08-23T13:51:42;1.83;;;1.40;;
4634;SDS011;2330;48.158;11.816;2022-08-23T13:54:43;2.93;;;1.90;;
4634;SDS011;2330;48.158;11.816;2022-08-23T13:57:16;3.47;;;1.90;;
4634;SDS011;2330;48.158;11.816;2022-08-23T13:59:47;1.30;;;1.20;;
4634;SDS011;2330;48.158;11.816;2022-08-23T14:02:17;4.07;;;1.20;;
4634;SDS011;2330;48.158;11.816;2022-08-23T14:04:46;2.70;;;1.33;;
4634;SDS011;2330;48.158;11.816;2022-08-23T14:07:13;2.47;;;1.60;;
4634;SDS011;2330;48.158;11.816;2022-08-23T14:09:40;2.40;;;1.33;;
4634;SDS011;2330;48.158;11.816;2022-08-23T14:12:10;1.67;;;1.30;;
4634;SDS011;2330;48.158;11.816;2022-08-23T14:14:40;1.50;;;1.40;;
4634;SDS011;2330;48.158;11.816;2022-08-23T14:17:08;3.60;;;1.43;;
4634;SDS011;2330;48.158;11.816;2022-08-23T14:19:38;2.23;;;1.40;;
4634;SDS011;2330;48.158;11.816;2022-08-23T14:22:25;1.27;;;1.17;;
4634;SDS011;2330;48.158;11.816;2022-08-23T14:24:52;3.70;;;1.43;;
4634;SDS011;2330;48.158;11.816;2022-08-23T14:27:19;3.23;;;1.40;;
4634;SDS011;2330;48.158;11.816;2022-08-23T14:29:46;3.90;;;1.70;;
4634;SDS011;2330;48.158;11.816;2022-08-23T14:32:13;1.87;;;1.50;;
4634;SDS011;2330;48.158;11.816;2022-08-23T14:34:39;1.53;;;1.43;;
4634;SDS011;2330;48.158;11.816;2022-08-23T14:37:06;1.80;;;1.63;;
4634;SDS011;2330;48.158;11.816;2022-08-23T14:39:53;1.10;;;1.00;;
4634;SDS011;2330;48.158;11.816;2022-08-23T14:42:21;2.87;;;1.67;;
4634;SDS011;2330;48.158;11.816;2022-08-23T14:44:47;2.13;;;1.40;;
4634;SDS011;2330;48.158;11.816;2022-08-23T14:47:15;2.90;;;1.50;;
4634;SDS011;2330;48.158;11.816;2022-08-23T14:49:43;2.50;;;1.50;;
4634;SDS011;2330;48.158;11.816;2022-08-23T14:52:10;4.80;;;1.50;;
4634;SDS011;2330;48.158;11.816;2022-08-23T14:54:39;2.03;;;1.50;;
4634;SDS011;2330;48.158;11.816;2022-08-23T14:57:07;3.23;;;1.20;;
4634;SDS011;2330;48.158;11.816;2022-08-23T14:59:34;1.43;;;1.20;;
4634;SDS011;2330;48.158;11.816;2022-08-23T15:02:01;2.67;;;1.60;;
4634;SDS011;2330;48.158;11.816;2022-08-23T15:04:30;5.63;;;1.47;;
4634;SDS011;2330;48.158;11.816;2022-08-23T15:06:59;5.17;;;1.30;;
4634;SDS011;2330;48.158;11.816;2022-08-23T15:09:48;3.00;;;1.60;;
4634;SDS011;2330;48.158;11.816;2022-08-23T15:12:17;2.57;;;1.30;;
4634;SDS011;2330;48.158;11.816;2022-08-23T15:15:07;1.60;;;1.47;;
4634;SDS011;2330;48.158;11.816;2022-08-23T15:17:42;1.60;;;1.20;;
4634;SDS011;2330;48.158;11.816;2022-08-23T15:20:20;2.50;;;1.33;;
4634;SDS011;2330;48.158;11.816;2022-08-23T15:22:50;7.10;;;1.63;;
4634;SDS011;2330;48.158;11.816;2022-08-23T15:25:21;1.83;;;1.40;;
4634;SDS011;2330;48.158;11.816;2022-08-23T15:27:49;1.93;;;1.50;;
4634;SDS011;2330;48.158;11.816;2022-08-23T15:30:16;1.57;;;1.40;;
4634;SDS011;2330;48.158;11.816;2022-08-23T15:32:43;1.63;;;1.23;;
4634;SDS011;2330;48.158;11.816;2022-08-23T15:35:22;1.67;;;1.30;;
4634;SDS011;2330;48.158;11.816;2022-08-23T15:37:51;2.40;;;1.30;;
4634;SDS011;2330;48.158;11.816;2022-08-23T15:40:18;2.63;;;1.33;;
4634;SDS011;2330;48.158;11.816;2022-08-23T15:42:46;2.53;;;1.40;;
4634;SDS011;2330;48.158;11.816;2022-08-23T15:45:12;2.10;;;1.57;;
4634;SDS011;2330;48.158;11.816;2022-08-23T15:47:58;1.30;;;1.20;;
4634;SDS011;2330;48.158;11.816;2022-08-23T15:50:27;3.23;;;1.50;;
4634;SDS011;2330;48.158;11.816;2022-08-23T15:52:58;1.77;;;1.10;;
4634;SDS011;2330;48.158;11.816;2022-08-23T15:55:27;1.83;;;1.30;;
4634;SDS011;2330;48.158;11.816;2022-08-23T15:57:57;6.90;;;1.17;;
4634;SDS011;2330;48.158;11.816;2022-08-23T16:00:25;3.17;;;1.43;;
4634;SDS011;2330;48.158;11.816;2022-08-23T16:02:52;2.10;;;1.50;;
4634;SDS011;2330;48.158;11.816;2022-08-23T16:05:41;2.63;;;1.70;;
4634;SDS011;2330;48.158;11.816;2022-08-23T16:08:12;1.83;;;1.67;;
4634;SDS011;2330;48.158;11.816;2022-08-23T16:10:46;3.10;;;1.50;;
4634;SDS011;2330;48.158;11.816;2022-08-23T16:13:13;2.90;;;1.23;;
4634;SDS011;2330;48.158;11.816;2022-08-23T16:15:40;1.40;;;1.30;;
4634;SDS011;2330;48.158;11.816;2022-08-23T16:18:07;2.40;;;1.33;;
4634;SDS011;2330;48.158;11.816;2022-08-23T16:20:33;2.90;;;1.50;;
4634;SDS011;2330;48.158;11.816;2022-08-23T16:23:00;1.90;;;1.57;;
4634;SDS011;2330;48.158;11.816;2022-08-23T16:25:27;1.50;;;1.40;;
4634;SDS011;2330;48.158;11.816;2022-08-23T16:27:54;5.30;;;1.47;;
4634;SDS011;2330;48.158;11.816;2022-08-23T16:30:21;1.30;;;1.20;;
4634;SDS011;2330;48.158;11.816;2022-08-23T16:32:48;4.30;;;1.40;;
4634;SDS011;2330;48.158;11.816;2022-08-23T16:35:15;1.20;;;1.10;;
4634;SDS011;2330;48.158;11.816;2022-08-23T16:37:42;2.20;;;1.50;;
4634;SDS011;2330;48.158;11.816;2022-08-23T16:40:09;1.33;;;1.20;;
4634;SDS011;2330;48.158;11.816;2022-08-23T16:42:37;1.40;;;1.30;;
4634;SDS011;2330;48.158;11.816;2022-08-23T16:45:04;1.97;;;1.30;;
4634;SDS011;2330;48.158;11.816;2022-08-23T16:47:32;1.43;;;1.30;;
4634;SDS011;2330;48.158;11.816;2022-08-23T16:50:06;3.07;;;1.10;;
4634;SDS011;2330;48.158;11.816;2022-08-23T16:52:34;1.93;;;1.60;;
4634;SDS011;2330;48.158;11.816;2022-08-23T16:55:02;3.03;;;1.50;;
4634;SDS011;2330;48.158;11.816;2022-08-23T16:57:31;1.83;;;1.17;;
4634;SDS011;2330;48.158;11.816;2022-08-23T16:59:58;2.00;;;1.80;;
4634;SDS011;2330;48.158;11.816;2022-08-23T17:02:30;2.30;;;1.40;;
4634;SDS011;2330;48.158;11.816;2022-08-23T17:05:00;2.47;;;1.57;;
4634;SDS011;2330;48.158;11.816;2022-08-23T17:07:27;2.63;;;1.50;;
4634;SDS011;2330;48.158;11.816;2022-08-23T17:09:54;1.50;;;1.40;;
4634;SDS011;2330;48.158;11.816;2022-08-23T17:12:21;4.00;;;1.60;;
4634;SDS011;2330;48.158;11.816;2022-08-23T17:14:47;1.30;;;1.20;;